Nearby METAR Reports

Actuele Vliegveldwaarnemingen NL (METAR).Zie KNMI uitleg METAR hier

EHAM - Amsterdam/Schiph, Netherlands
Distance from station: ONO 18km
Updated: 20/06/2024 13:55
Few Clouds
Few Clouds
 Wind van ONO
Wind: ONO 13 km/h
Temperatuur: 19°C
Dauwpunt: 14°C
Vochtigheid: 73%
Barometer: 1020 hPa
Clouds: Few Clouds
Visibility: 10 km
Cloud details: Few Clouds 1219 m
2024/06/20 11:55 EHAM 201155Z 06007KT 360V090 9999 FEW040 19/14 Q1020 NOSIG
EHKD - DE KOOY/DE KOOY
Updated: 20/06/2024 13:55
Zwaar bewolkt
Zwaar bewolkt
 Wind van ONO
Wind: ONO 13 km/h
Temperatuur: 16°C
Dauwpunt: 10°C
Vochtigheid: 68%
Barometer: 1021 hPa
Clouds: Zwaar bewolkt
Visibility: 10 km
Cloud details: Zwaar bewolkt 6706 m
2024/06/20 11:55 EHKD 201155Z AUTO 06007KT 360V110 9999 OVC220 16/10 Q1021 BLU NOSIG
 
EHLW - LEEUWARDEN/LEEUWARDEN
Updated: 20/06/2024 13:55
Zwaar bewolkt
Zwaar bewolkt
 Wind van NO
Wind: NO 7 km/h
Temperatuur: 17°C
Dauwpunt: 11°C
Vochtigheid: 68%
Barometer: 1021 hPa
Clouds: Zwaar bewolkt
Visibility: 10 km
Cloud details: Zwaar bewolkt 6706 m
2024/06/20 11:55 EHLW 201155Z AUTO 05004KT 350V100 9999 OVC220 17/11 Q1021 BLU NOSIG
EHVK - VOLKEL/VOLKEL
Updated: 20/06/2024 13:55
Zwaar bewolkt
Zwaar bewolkt
 Wind van NO
Wind: NO 15 km/h
Temperatuur: 20°C
Dauwpunt: 12°C
Vochtigheid: 60%
Barometer: 1019 hPa
Clouds: Zwaar bewolkt
Visibility: 10 km
Cloud details: Few Clouds 2865 m
Zwaar bewolkt 3048 m
2024/06/20 11:55 EHVK 201155Z AUTO 05008KT 020V110 9999 FEW094 OVC100 20/12 Q1019 BLU NOSIG
 
EHFS - VLISSINGEN
Updated: 20/06/2024 13:25
Gedeeltelijk bewolkt
Gedeeltelijk bewolkt
 Wind van N
Wind: N 17 km/h
Temperatuur: 19°C
Dauwpunt: 13°C
Vochtigheid: 68%
Barometer: 1019 hPa
Clouds: Gedeeltelijk bewolkt
Visibility: 10 km
2024/06/20 11:25 EHFS 201125Z AUTO 01009KT 330V050 9999 NSC 19/13 Q1019
EHEH - EINDHOVEN/EINDHOVEN
Updated: 20/06/2024 13:55
Lichte regen, Zwaar bewolkt
Lichte regen, Zwaar bewolkt
 Wind van NNO
Wind: NNO 19 km/h
Temperatuur: 20°C
Dauwpunt: 11°C
Vochtigheid: 56%
Barometer: 1019 hPa
Overzicht: Lichte regen
Clouds: Zwaar bewolkt
Visibility: 10 km
Cloud details: Few Clouds 975 m
Zwaar bewolkt 3048 m
2024/06/20 11:55 EHEH 201155Z AUTO 03010KT 020V090 9999 -RA FEW032CB OVC100 20/11 Q1019 BLU NOSIG
 
EHGR - GILZE-RIJEN/GILZE-RIJEN
Updated: 20/06/2024 13:55
Zwaar bewolkt
Zwaar bewolkt
 Wind van ONO
Wind: ONO 15 km/h
Temperatuur: 21°C
Dauwpunt: 13°C
Vochtigheid: 60%
Barometer: 1019 hPa
Clouds: Zwaar bewolkt
Visibility: 10 km
Cloud details: Zwaar bewolkt 3658 m
2024/06/20 11:55 EHGR 201155Z AUTO 06008KT 360V110 9999 OVC120 21/13 Q1019 BLU NOSIG
EHDL - ARNHEM/DEELEN
Updated: 20/06/2024 13:55
Zwaar bewolkt
Zwaar bewolkt
 Wind van NO
Wind: NO 9 km/h
Temperatuur: 20°C
Dauwpunt: 11°C
Vochtigheid: 56%
Barometer: 1019 hPa
Clouds: Zwaar bewolkt
Visibility: 10 km
Cloud details: Zwaar bewolkt 3353 m
2024/06/20 11:55 EHDL 201155Z AUTO 05005KT 9999 OVC110 20/11 Q1019 BLU
 
EHBK - MAASTRICHT/MAASTRICHT-AACHEN
Updated: 20/06/2024 13:55
Lichte regen, Meestal bewolkt
Lichte regen, Meestal bewolkt
 Wind van O
Wind: O 17 km/h
Temperatuur: 18°C
Dauwpunt: 15°C
Vochtigheid: 83%
Barometer: 1018 hPa
Overzicht: Lichte regen
Clouds: Meestal bewolkt
Visibility: 7 km
Cloud details: Few Clouds 457 m
Gedeeltelijk bewolkt 1097 m
Meestal bewolkt 1402 m
2024/06/20 11:55 EHBK 201155Z AUTO 08009KT 040V120 7000 -RA FEW015CB SCT036 BKN046 18/15 Q1018 BECMG CAVOK